Time;durP1;ratioP1;P1;durP2;ratioP2;P2;SDS_P1;SDS_P2;PMS_P1;PMS_P2;Temp;Humidity;BMP_temperature;BMP_pressure;BME280_temperature;BME280_humidity;BME280_pressure;Samples;Min_cycle;Max_cycle;Signal;HPM_P1;HPM_P2
2023/08/23 00:00:52;;;;;;;4.43;2.47;;;17.10;99.90;;;;;;5073245;28;20037;-65
2023/08/23 00:03:18;;;;;;;3.63;2.58;;;17.00;99.90;;;;;;5073444;28;20032;-64
2023/08/23 00:05:44;;;;;;;3.20;2.38;;;17.00;99.90;;;;;;5073655;28;20410;-64
2023/08/23 00:08:09;;;;;;;2.15;1.95;;;17.00;99.90;;;;;;5073040;28;20482;-64
2023/08/23 00:10:35;;;;;;;2.90;2.30;;;17.00;99.90;;;;;;5070662;28;20116;-64
2023/08/23 00:13:00;;;;;;;3.00;2.30;;;16.90;99.90;;;;;;5071078;28;20044;-65
2023/08/23 00:15:26;;;;;;;3.55;2.20;;;16.90;99.90;;;;;;5073455;28;20383;-65
2023/08/23 00:17:52;;;;;;;3.40;2.55;;;16.80;99.90;;;;;;5072501;28;20024;-65
2023/08/23 00:20:17;;;;;;;3.33;2.70;;;16.70;99.90;;;;;;5071906;28;20571;-64
2023/08/23 00:22:43;;;;;;;2.63;2.35;;;16.70;99.90;;;;;;5069810;28;20123;-65
2023/08/23 00:25:08;;;;;;;2.47;2.28;;;16.70;99.90;;;;;;5069233;28;20029;-65
2023/08/23 00:27:34;;;;;;;2.30;2.10;;;16.60;99.90;;;;;;5072770;28;20036;-65
2023/08/23 00:30:00;;;;;;;1.90;1.80;;;16.60;99.90;;;;;;5071624;28;20068;-65
2023/08/23 00:32:25;;;;;;;2.42;2.00;;;16.50;99.90;;;;;;5073330;28;20044;-65
2023/08/23 00:34:51;;;;;;;4.03;2.35;;;16.50;99.90;;;;;;5066246;28;20483;-65
2023/08/23 00:37:16;;;;;;;3.13;2.63;;;16.50;99.90;;;;;;5070674;28;20379;-65
2023/08/23 00:39:44;;;;;;;2.63;2.33;;;16.40;99.90;;;;;;5072501;28;20040;-65
2023/08/23 00:42:10;;;;;;;4.75;2.53;;;16.40;99.90;;;;;;5069492;28;20040;-65
2023/08/23 00:44:35;;;;;;;3.38;2.53;;;16.40;99.90;;;;;;5075474;22;20040;-65
2023/08/23 00:47:01;;;;;;;3.88;2.53;;;16.50;99.90;;;;;;5071492;28;20039;-65
2023/08/23 00:49:33;;;;;;;3.67;2.50;;;16.50;99.90;;;;;;5069741;28;20040;-65
2023/08/23 00:52:01;;;;;;;3.08;2.30;;;16.40;99.90;;;;;;5070423;28;20048;-65
2023/08/23 00:54:27;;;;;;;3.40;2.58;;;16.40;99.90;;;;;;5070410;28;20038;-65
2023/08/23 00:56:55;;;;;;;2.95;2.75;;;16.40;99.90;;;;;;5064209;28;20033;-65
2023/08/23 00:59:21;;;;;;;3.55;2.60;;;16.40;99.90;;;;;;5070358;28;20060;-65
2023/08/23 01:01:48;;;;;;;3.55;2.80;;;16.40;99.90;;;;;;5070991;28;20121;-65
2023/08/23 01:04:14;;;;;;;3.15;2.55;;;16.40;99.90;;;;;;5063266;28;20033;-65
2023/08/23 01:06:48;;;;;;;3.30;2.50;;;16.30;99.90;;;;;;5068539;28;20483;-65
2023/08/23 01:09:29;;;;;;;2.70;2.45;;;16.30;99.90;;;;;;5065515;28;20048;-65
2023/08/23 01:12:08;;;;;;;2.90;2.60;;;16.30;99.90;;;;;;5068559;28;20631;-65
2023/08/23 01:14:46;;;;;;;3.40;2.13;;;16.20;99.90;;;;;;5065275;28;20032;-65
2023/08/23 01:17:14;;;;;;;2.60;2.40;;;16.30;99.90;;;;;;5044802;28;20578;-65
2023/08/23 01:19:43;;;;;;;2.80;2.35;;;16.30;99.90;;;;;;5066329;28;20490;-65
2023/08/23 01:22:12;;;;;;;3.35;3.03;;;16.30;99.90;;;;;;5066776;28;20045;-65
2023/08/23 01:24:38;;;;;;;3.40;2.78;;;16.30;99.90;;;;;;5069396;28;20036;-65
2023/08/23 01:27:04;;;;;;;4.88;2.90;;;16.30;99.90;;;;;;5069468;28;20036;-65
2023/08/23 01:29:30;;;;;;;4.63;3.13;;;16.30;99.90;;;;;;5062390;28;20040;-65
2023/08/23 01:32:14;;;;;;;3.97;2.85;;;16.30;99.90;;;;;;5070519;28;20043;-65
2023/08/23 01:34:46;;;;;;;3.40;3.10;;;16.30;99.90;;;;;;5064175;28;20486;-65
2023/08/23 01:37:13;;;;;;;5.20;3.75;;;16.20;99.90;;;;;;5070275;28;20116;-65
2023/08/23 01:39:39;;;;;;;3.38;2.83;;;16.20;99.90;;;;;;5070811;28;20044;-65
2023/08/23 01:42:06;;;;;;;4.35;2.72;;;16.20;99.90;;;;;;5071720;28;20355;-65
2023/08/23 01:44:31;;;;;;;3.28;2.97;;;16.00;99.90;;;;;;5070267;28;20075;-65
2023/08/23 01:46:57;;;;;;;4.22;3.03;;;16.00;99.90;;;;;;5070153;28;20056;-65
2023/08/23 01:49:22;;;;;;;6.50;3.38;;;15.90;99.90;;;;;;5070989;28;20083;-65
2023/08/23 01:51:48;;;;;;;10.70;4.95;;;15.90;99.90;;;;;;5068291;28;20038;-66
2023/08/23 01:54:14;;;;;;;7.82;5.45;;;15.90;99.90;;;;;;5065312;28;20620;-66
2023/08/23 01:56:39;;;;;;;5.65;3.45;;;15.80;99.90;;;;;;5070803;28;20158;-66
2023/08/23 01:59:05;;;;;;;5.35;3.58;;;15.80;99.90;;;;;;5064481;28;20133;-66
2023/08/23 02:01:31;;;;;;;8.05;3.90;;;15.80;99.90;;;;;;5066125;28;20032;-66
2023/08/23 02:03:57;;;;;;;8.90;5.13;;;15.80;99.90;;;;;;5049174;28;20044;-66
2023/08/23 02:06:22;;;;;;;11.30;5.15;;;15.80;99.90;;;;;;5065518;28;20039;-66
2023/08/23 02:08:48;;;;;;;8.75;5.28;;;15.70;99.90;;;;;;5069395;28;20428;-65
2023/08/23 02:11:14;;;;;;;7.55;4.50;;;15.70;99.90;;;;;;5063056;28;20024;-65
2023/08/23 02:13:39;;;;;;;6.18;4.45;;;15.60;99.90;;;;;;5071145;28;20044;-66
2023/08/23 02:16:05;;;;;;;5.03;3.80;;;15.50;99.90;;;;;;5070682;28;20410;-66
2023/08/23 02:18:30;;;;;;;17.08;3.83;;;15.50;99.90;;;;;;5069496;28;20039;-66
2023/08/23 02:20:57;;;;;;;6.22;3.40;;;15.50;99.90;;;;;;5069889;28;20442;-66
2023/08/23 02:23:24;;;;;;;13.43;3.70;;;15.50;99.90;;;;;;5068911;28;20123;-66
2023/08/23 02:25:50;;;;;;;6.43;3.88;;;15.60;99.90;;;;;;5069524;28;20398;-66
2023/08/23 02:28:15;;;;;;;8.55;4.00;;;15.60;99.90;;;;;;5069484;28;20037;-66
2023/08/23 02:30:41;;;;;;;8.77;4.03;;;15.40;99.90;;;;;;5046862;28;20547;-66
2023/08/23 02:33:07;;;;;;;10.30;4.28;;;15.40;99.90;;;;;;5053001;28;20044;-66
2023/08/23 02:35:32;;;;;;;32.95;4.43;;;15.40;99.90;;;;;;5070627;28;20032;-65
2023/08/23 02:38:00;;;;;;;10.57;3.90;;;15.40;99.90;;;;;;5074931;28;20036;-66
2023/08/23 02:40:25;;;;;;;12.63;4.82;;;15.50;99.90;;;;;;5073678;28;20556;-66
2023/08/23 02:42:55;;;;;;;5.43;4.20;;;15.50;99.90;;;;;;5073654;28;20028;-65
2023/08/23 02:45:20;;;;;;;9.15;5.05;;;15.60;99.90;;;;;;5074173;28;20087;-65
2023/08/23 02:47:46;;;;;;;12.90;4.53;;;15.60;99.90;;;;;;5076254;28;20072;-66
2023/08/23 02:50:12;;;;;;;11.93;5.05;;;15.50;99.90;;;;;;5073628;28;20425;-66
2023/08/23 02:52:37;;;;;;;7.25;4.80;;;15.40;99.90;;;;;;5074003;28;20104;-65
2023/08/23 02:55:03;;;;;;;8.27;4.72;;;15.40;99.90;;;;;;5071682;28;20459;-66
2023/08/23 02:57:29;;;;;;;7.72;4.72;;;15.40;99.90;;;;;;5069076;28;20064;-66
2023/08/23 02:59:54;;;;;;;7.43;5.28;;;15.50;99.90;;;;;;5070126;28;20405;-66
2023/08/23 03:02:20;;;;;;;9.68;5.75;;;15.50;99.90;;;;;;5074951;28;20029;-66
2023/08/23 03:04:45;;;;;;;10.25;5.20;;;15.50;99.90;;;;;;5074770;28;20040;-65
2023/08/23 03:07:11;;;;;;;13.02;5.50;;;15.50;99.90;;;;;;5072360;28;20041;-65
2023/08/23 03:09:36;;;;;;;8.77;4.47;;;15.50;99.90;;;;;;5074373;28;20029;-66
2023/08/23 03:12:02;;;;;;;26.50;5.93;;;15.50;99.90;;;;;;5074488;28;20089;-65
2023/08/23 03:14:29;;;;;;;10.23;5.30;;;15.40;99.90;;;;;;5065178;28;20029;-66
2023/08/23 03:16:55;;;;;;;11.05;4.90;;;15.40;99.90;;;;;;5072874;28;20035;-66
2023/08/23 03:19:20;;;;;;;16.77;4.95;;;15.40;99.90;;;;;;5074083;28;20028;-66
2023/08/23 03:21:46;;;;;;;9.00;4.70;;;15.40;99.90;;;;;;5073433;28;20036;-66
2023/08/23 03:24:11;;;;;;;22.80;5.85;;;15.30;99.90;;;;;;5067602;28;20032;-66
2023/08/23 03:26:37;;;;;;;6.72;5.03;;;15.30;99.90;;;;;;5072422;28;20032;-66
2023/08/23 03:29:03;;;;;;;11.55;4.68;;;15.30;99.90;;;;;;5068570;28;20075;-66
2023/08/23 03:31:28;;;;;;;7.28;4.82;;;15.30;99.90;;;;;;5065613;28;20063;-66
2023/08/23 03:33:54;;;;;;;6.65;4.50;;;15.40;99.90;;;;;;5066772;28;20371;-66
2023/08/23 03:36:20;;;;;;;9.55;4.35;;;15.30;99.90;;;;;;5070134;28;20087;-66
2023/08/23 03:38:45;;;;;;;14.43;4.63;;;15.30;99.90;;;;;;5065233;28;20457;-66
2023/08/23 03:41:15;;;;;;;10.50;4.82;;;15.30;99.90;;;;;;5066014;28;20116;-66
2023/08/23 03:43:40;;;;;;;15.02;4.97;;;15.20;99.90;;;;;;5063970;28;20613;-66
2023/08/23 03:46:06;;;;;;;43.55;6.28;;;15.20;99.90;;;;;;5072236;28;20075;-66
2023/08/23 03:48:31;;;;;;;9.93;4.70;;;15.10;99.90;;;;;;5073306;28;20490;-66
2023/08/23 03:50:59;;;;;;;7.97;4.30;;;15.10;99.90;;;;;;5071134;28;20071;-66
2023/08/23 03:53:25;;;;;;;5.10;4.60;;;15.10;99.90;;;;;;5067828;28;20044;-66
2023/08/23 03:55:51;;;;;;;5.82;3.90;;;15.10;99.90;;;;;;5066988;28;20039;-66
2023/08/23 03:58:17;;;;;;;8.23;4.25;;;15.20;99.90;;;;;;5067698;28;20120;-65
2023/08/23 04:00:51;;;;;;;5.82;4.40;;;15.20;99.90;;;;;;5069198;28;20238;-66
2023/08/23 04:03:17;;;;;;;4.55;4.03;;;15.20;99.90;;;;;;5067256;28;20039;-66
2023/08/23 04:05:43;;;;;;;4.13;3.65;;;15.30;99.90;;;;;;5066617;28;20032;-66
2023/08/23 04:08:08;;;;;;;6.00;3.95;;;15.30;99.90;;;;;;5052347;28;20117;-66
2023/08/23 04:10:34;;;;;;;6.05;3.80;;;15.30;99.90;;;;;;5071884;28;20060;-66
2023/08/23 04:13:00;;;;;;;4.93;3.70;;;15.30;99.90;;;;;;5073181;28;20037;-66
2023/08/23 04:15:26;;;;;;;4.60;3.42;;;15.30;99.90;;;;;;5072776;28;20032;-66
2023/08/23 04:17:52;;;;;;;3.95;3.60;;;15.30;99.90;;;;;;5072315;28;20037;-66
2023/08/23 04:20:17;;;;;;;5.25;4.10;;;15.30;99.90;;;;;;5063835;28;20085;-67
2023/08/23 04:22:43;;;;;;;5.00;4.35;;;15.20;99.90;;;;;;5073601;28;20433;-66
2023/08/23 04:25:10;;;;;;;6.80;4.43;;;15.30;99.90;;;;;;5070927;28;20041;-66
2023/08/23 04:27:36;;;;;;;4.32;3.92;;;15.30;99.90;;;;;;5073460;28;20062;-66
2023/08/23 04:30:02;;;;;;;3.88;3.58;;;15.20;99.90;;;;;;5064600;28;20398;-66
2023/08/23 04:32:27;;;;;;;4.45;4.05;;;15.30;99.90;;;;;;5069569;28;20055;-66
2023/08/23 04:34:53;;;;;;;4.80;4.30;;;15.30;99.90;;;;;;5071801;28;20420;-66
2023/08/23 04:37:19;;;;;;;5.25;4.75;;;15.30;99.90;;;;;;5072586;28;20044;-66
2023/08/23 04:39:44;;;;;;;5.60;5.00;;;15.20;99.90;;;;;;5067007;28;20083;-66
2023/08/23 04:42:10;;;;;;;6.60;5.68;;;15.20;99.90;;;;;;5052781;28;20395;-66
2023/08/23 04:44:35;;;;;;;6.22;5.63;;;15.10;99.90;;;;;;5061706;28;20086;-66
2023/08/23 04:47:01;;;;;;;5.88;5.28;;;15.00;99.90;;;;;;5065173;28;20043;-66
2023/08/23 04:49:27;;;;;;;7.35;6.35;;;15.10;99.90;;;;;;5067425;28;20029;-66
2023/08/23 04:51:52;;;;;;;6.78;6.07;;;15.10;99.90;;;;;;5071351;28;20665;-66
2023/08/23 04:54:18;;;;;;;5.50;5.00;;;15.10;99.90;;;;;;5072179;28;20093;-66
2023/08/23 04:56:44;;;;;;;5.90;5.40;;;15.20;99.90;;;;;;5070610;28;20032;-66
2023/08/23 04:59:09;;;;;;;8.15;5.40;;;15.10;99.90;;;;;;5067690;28;20094;-66
2023/08/23 05:01:35;;;;;;;6.22;5.60;;;15.20;99.90;;;;;;5067526;28;20040;-66
2023/08/23 05:04:00;;;;;;;6.25;5.68;;;15.20;99.90;;;;;;5069447;28;20494;-66
2023/08/23 05:06:26;;;;;;;6.47;5.63;;;15.20;99.90;;;;;;5065746;28;20028;-66
2023/08/23 05:08:51;;;;;;;5.97;5.30;;;15.30;99.90;;;;;;5070342;28;20555;-66
2023/08/23 05:11:17;;;;;;;6.20;5.18;;;15.30;99.90;;;;;;5071693;28;20021;-66
2023/08/23 05:13:43;;;;;;;6.15;5.55;;;15.30;99.90;;;;;;5072315;28;20524;-66
2023/08/23 05:16:08;;;;;;;5.68;5.18;;;15.40;99.90;;;;;;5072163;28;20114;-66
2023/08/23 05:18:34;;;;;;;5.68;4.90;;;15.40;99.90;;;;;;5070212;28;20111;-66
2023/08/23 05:20:59;;;;;;;5.60;5.10;;;15.50;99.90;;;;;;5069180;28;20081;-66
2023/08/23 05:23:25;;;;;;;7.38;5.63;;;15.50;99.90;;;;;;5063632;28;20040;-66
2023/08/23 05:25:52;;;;;;;7.22;5.85;;;15.50;99.90;;;;;;5072325;28;20075;-66
2023/08/23 05:28:22;;;;;;;8.00;5.85;;;15.50;99.90;;;;;;5071522;28;20040;-66
2023/08/23 05:30:49;;;;;;;8.65;7.75;;;15.60;99.90;;;;;;5068940;28;20375;-66
2023/08/23 05:33:15;;;;;;;7.40;6.63;;;15.70;99.90;;;;;;5063008;28;20036;-67
2023/08/23 05:35:41;;;;;;;9.43;7.78;;;15.70;99.90;;;;;;5069294;28;20032;-66
2023/08/23 05:38:07;;;;;;;9.93;8.20;;;15.70;99.90;;;;;;5068437;28;20087;-66
2023/08/23 05:40:33;;;;;;;8.65;7.75;;;15.80;99.90;;;;;;5069015;28;20040;-66
2023/08/23 05:42:59;;;;;;;11.63;8.52;;;15.90;99.90;;;;;;5071127;28;20059;-66
2023/08/23 05:45:26;;;;;;;9.77;8.55;;;15.90;99.90;;;;;;5070541;28;20090;-66
2023/08/23 05:47:56;;;;;;;10.98;9.07;;;16.00;99.90;;;;;;5067730;28;20417;-66
2023/08/23 05:50:22;;;;;;;9.73;8.30;;;16.00;99.90;;;;;;5069709;28;20056;-66
2023/08/23 05:52:48;;;;;;;13.15;8.50;;;16.00;99.90;;;;;;5064256;28;20032;-66
2023/08/23 05:55:14;;;;;;;9.82;8.35;;;16.10;99.90;;;;;;5065577;28;20029;-66
2023/08/23 05:57:40;;;;;;;9.40;8.27;;;16.10;99.90;;;;;;5070722;28;20039;-66
2023/08/23 06:00:07;;;;;;;9.32;8.32;;;16.20;99.90;;;;;;5071449;28;20403;-66
2023/08/23 06:02:32;;;;;;;11.10;8.75;;;16.20;99.90;;;;;;5069544;28;20072;-66
2023/08/23 06:04:58;;;;;;;11.00;8.18;;;16.30;99.90;;;;;;5068635;28;20520;-66
2023/08/23 06:07:24;;;;;;;10.07;8.77;;;16.30;99.90;;;;;;5069390;28;20032;-66
2023/08/23 06:09:50;;;;;;;10.52;9.23;;;16.30;99.90;;;;;;5070121;28;20406;-66
2023/08/23 06:12:15;;;;;;;11.23;8.98;;;16.30;99.90;;;;;;5060682;28;20036;-66
2023/08/23 06:14:41;;;;;;;11.77;8.63;;;16.30;99.90;;;;;;5069528;28;20032;-66
2023/08/23 06:17:07;;;;;;;10.13;8.25;;;16.30;99.90;;;;;;5070901;28;20040;-66
2023/08/23 06:19:33;;;;;;;11.30;9.70;;;16.40;99.90;;;;;;5070645;28;20037;-66
2023/08/23 06:21:58;;;;;;;15.40;10.10;;;16.40;99.90;;;;;;5060336;28;20071;-66
2023/08/23 06:24:24;;;;;;;17.50;12.27;;;16.50;99.90;;;;;;5067380;28;20038;-66
2023/08/23 06:26:50;;;;;;;16.13;10.93;;;16.60;99.90;;;;;;5070388;28;20032;-66
2023/08/23 06:29:17;;;;;;;19.25;13.18;;;16.60;99.90;;;;;;5069040;28;20040;-66
2023/08/23 06:31:43;;;;;;;19.08;13.20;;;16.70;99.90;;;;;;5069004;28;20037;-66
2023/08/23 06:34:08;;;;;;;18.45;13.85;;;16.80;99.90;;;;;;5066509;28;20044;-66
2023/08/23 06:36:34;;;;;;;20.02;13.90;;;17.00;99.90;;;;;;5066430;28;20032;-66
2023/08/23 06:38:59;;;;;;;17.50;14.27;;;17.10;99.90;;;;;;5062384;28;20116;-66
2023/08/23 06:41:25;;;;;;;20.05;15.15;;;17.30;99.90;;;;;;5067952;28;20090;-67
2023/08/23 06:43:59;;;;;;;20.17;15.40;;;17.50;99.90;;;;;;5081620;22;20029;-66
2023/08/23 06:46:24;;;;;;;22.38;15.73;;;17.60;99.90;;;;;;5067456;28;20033;-66
2023/08/23 06:48:50;;;;;;;23.63;14.82;;;17.80;99.90;;;;;;5062367;28;20033;-66
2023/08/23 06:51:15;;;;;;;20.80;13.93;;;17.90;99.90;;;;;;5069839;28;20031;-67
2023/08/23 06:53:41;;;;;;;21.65;14.27;;;18.00;99.90;;;;;;5071930;28;20127;-67
2023/08/23 06:56:11;;;;;;;20.63;14.45;;;18.00;99.90;;;;;;5060944;28;20131;-67
2023/08/23 06:58:46;;;;;;;26.10;16.52;;;18.00;99.90;;;;;;5060311;28;20072;-66
2023/08/23 07:01:18;;;;;;;23.35;15.07;;;18.10;99.90;;;;;;5081563;28;20036;-67
2023/08/23 07:03:44;;;;;;;23.88;15.23;;;18.20;99.90;;;;;;5063492;28;20037;-66
2023/08/23 07:06:12;;;;;;;26.50;15.75;;;18.30;99.90;;;;;;5064776;28;20075;-67
2023/08/23 07:08:38;;;;;;;25.38;15.52;;;18.40;99.90;;;;;;5058130;28;20033;-67
2023/08/23 07:11:04;;;;;;;22.83;14.02;;;18.50;99.90;;;;;;5057244;28;20043;-66
2023/08/23 07:13:30;;;;;;;22.33;14.20;;;18.70;99.90;;;;;;5062835;28;20033;-67
2023/08/23 07:15:55;;;;;;;20.73;14.38;;;18.80;99.90;;;;;;5066952;28;20071;-67
2023/08/23 07:18:21;;;;;;;19.10;13.05;;;18.90;99.90;;;;;;5066844;28;20040;-67
2023/08/23 07:20:46;;;;;;;18.35;12.52;;;19.00;99.90;;;;;;5067616;28;20036;-67
2023/08/23 07:23:12;;;;;;;18.48;12.30;;;19.10;99.90;;;;;;5073173;28;20072;-67
2023/08/23 07:25:38;;;;;;;18.55;11.77;;;19.20;99.90;;;;;;5064773;28;20123;-66
2023/08/23 07:28:04;;;;;;;18.95;12.27;;;19.30;99.90;;;;;;5068492;28;20048;-66
2023/08/23 07:30:30;;;;;;;16.52;11.75;;;19.40;99.90;;;;;;5072699;28;20090;-66
2023/08/23 07:32:56;;;;;;;17.77;11.77;;;19.50;99.90;;;;;;5068484;28;20032;-66
2023/08/23 07:35:21;;;;;;;19.67;11.60;;;19.60;99.90;;;;;;5074275;28;20474;-66
2023/08/23 07:37:47;;;;;;;16.58;11.55;;;19.70;99.90;;;;;;5072401;28;20024;-66
2023/08/23 07:40:13;;;;;;;15.63;11.30;;;19.80;99.90;;;;;;5059857;28;20372;-66
2023/08/23 07:42:39;;;;;;;15.45;11.00;;;19.90;99.90;;;;;;5061973;28;20032;-66
2023/08/23 07:45:06;;;;;;;16.05;10.75;;;19.90;99.90;;;;;;5062381;28;20517;-66
2023/08/23 07:47:31;;;;;;;13.73;9.60;;;19.90;99.90;;;;;;5062895;28;20048;-66
2023/08/23 07:49:57;;;;;;;14.77;9.73;;;20.00;99.90;;;;;;5073738;28;20071;-66
2023/08/23 07:52:23;;;;;;;15.88;9.85;;;20.10;99.90;;;;;;5055858;28;20040;-66
2023/08/23 07:54:48;;;;;;;15.15;9.95;;;20.20;99.90;;;;;;5061727;28;20033;-65
2023/08/23 07:57:14;;;;;;;16.10;9.55;;;20.30;99.90;;;;;;5073518;28;20441;-65
2023/08/23 07:59:39;;;;;;;11.07;8.77;;;20.50;99.90;;;;;;5057064;28;20037;-65
2023/08/23 08:02:05;;;;;;;11.23;8.38;;;20.60;99.90;;;;;;5053334;28;20414;-65
2023/08/23 08:04:32;;;;;;;12.10;8.52;;;20.70;99.90;;;;;;5065211;28;20040;-66
2023/08/23 08:06:57;;;;;;;11.60;8.30;;;20.80;99.90;;;;;;5064005;28;20043;-66
2023/08/23 08:09:23;;;;;;;12.75;8.38;;;20.80;99.90;;;;;;5083238;28;20478;-66
2023/08/23 08:11:49;;;;;;;9.73;7.07;;;20.90;99.90;;;;;;5064809;28;20234;-65
2023/08/23 08:14:15;;;;;;;9.75;8.02;;;20.90;99.90;;;;;;5064002;28;20032;-65
2023/08/23 08:16:40;;;;;;;9.80;7.20;;;21.10;99.90;;;;;;5071432;28;20067;-65
2023/08/23 08:19:06;;;;;;;9.18;7.30;;;21.30;99.90;;;;;;5062175;28;20494;-64
2023/08/23 08:21:31;;;;;;;9.95;7.20;;;21.40;99.90;;;;;;5067441;28;20042;-64
2023/08/23 08:23:58;;;;;;;8.07;6.70;;;21.50;99.90;;;;;;5065716;28;20067;-64
2023/08/23 08:26:24;;;;;;;8.85;7.15;;;21.60;99.90;;;;;;5052731;28;20647;-64
2023/08/23 08:28:50;;;;;;;10.85;7.82;;;21.70;99.90;;;;;;5059168;28;20132;-67
2023/08/23 08:31:16;;;;;;;12.05;7.28;;;21.80;99.90;;;;;;5085001;28;20123;-67
2023/08/23 08:33:42;;;;;;;8.65;7.05;;;21.90;99.90;;;;;;5071813;28;20120;-68
2023/08/23 08:36:08;;;;;;;7.93;6.88;;;22.00;99.90;;;;;;5055193;28;20111;-67
2023/08/23 08:38:33;;;;;;;7.72;6.10;;;22.00;99.90;;;;;;5067077;28;20584;-67
2023/08/23 08:40:59;;;;;;;8.20;6.40;;;22.10;99.90;;;;;;5064547;28;20040;-67
2023/08/23 08:43:25;;;;;;;11.80;6.00;;;22.20;99.90;;;;;;5064620;28;20123;-68
2023/08/23 08:45:51;;;;;;;8.25;6.32;;;22.30;99.90;;;;;;5060982;28;20123;-67
2023/08/23 08:48:17;;;;;;;9.27;6.90;;;22.40;99.90;;;;;;5061711;28;20037;-67
2023/08/23 08:50:43;;;;;;;7.78;6.20;;;22.50;99.90;;;;;;5063835;28;20493;-67
2023/08/23 08:53:16;;;;;;;8.40;5.40;;;22.60;99.90;;;;;;5069628;28;20064;-68
2023/08/23 08:55:44;;;;;;;7.82;5.47;;;22.60;99.90;;;;;;5065197;28;20036;-68
2023/08/23 08:58:15;;;;;;;8.73;5.07;;;22.70;99.90;;;;;;5070287;28;20048;-68
2023/08/23 09:00:42;;;;;;;7.45;4.90;;;22.80;99.90;;;;;;5067808;28;20792;-67
2023/08/23 09:03:08;;;;;;;6.47;5.22;;;22.90;99.90;;;;;;5066813;28;20032;-68
2023/08/23 09:05:34;;;;;;;8.82;5.10;;;23.00;99.90;;;;;;5056514;28;20111;-68
2023/08/23 09:08:01;;;;;;;8.27;5.97;;;23.20;99.90;;;;;;5070231;28;20040;-68
2023/08/23 09:10:26;;;;;;;7.85;4.40;;;23.20;99.90;;;;;;5066272;28;20037;-68
2023/08/23 09:12:52;;;;;;;6.75;3.30;;;23.30;99.90;;;;;;5054794;28;20039;-68
2023/08/23 09:15:23;;;;;;;6.28;3.63;;;23.30;99.90;;;;;;5060449;28;20082;-67
2023/08/23 09:17:50;;;;;;;;;;;23.40;99.90;;;;;;5059759;28;20819;-68
2023/08/23 09:20:16;;;;;;;4.63;3.85;;;23.50;99.90;;;;;;5062881;28;19920;-68
2023/08/23 09:22:42;;;;;;;7.50;4.00;;;23.60;99.90;;;;;;5062065;28;20037;-68
2023/08/23 09:25:08;;;;;;;5.43;3.53;;;23.70;99.90;;;;;;5064982;28;20051;-69
2023/08/23 09:27:33;;;;;;;5.25;3.03;;;23.80;99.90;;;;;;5060604;28;20072;-67
2023/08/23 09:30:03;;;;;;;5.00;2.90;;;23.80;99.90;;;;;;5062809;28;20070;-68
2023/08/23 09:32:29;;;;;;;2.50;2.10;;;23.90;99.90;;;;;;5063155;28;20144;-67
2023/08/23 09:34:56;;;;;;;5.20;2.88;;;24.00;99.90;;;;;;5057372;28;20090;-67
2023/08/23 09:37:21;;;;;;;2.85;2.08;;;24.10;99.90;;;;;;5058585;28;20072;-68
2023/08/23 09:39:47;;;;;;;3.83;2.67;;;24.20;99.90;;;;;;5061055;28;20075;-69
2023/08/23 09:42:14;;;;;;;4.22;2.40;;;24.20;99.90;;;;;;5053987;28;20068;-69
2023/08/23 09:44:43;;;;;;;4.07;2.25;;;24.20;99.90;;;;;;5057429;28;20075;-68
2023/08/23 09:47:15;;;;;;;5.57;2.50;;;24.30;99.90;;;;;;5056395;28;20063;-68
2023/08/23 09:49:43;;;;;;;4.45;2.35;;;24.30;99.90;;;;;;5055888;28;20132;-69
2023/08/23 09:52:11;;;;;;;6.22;2.47;;;24.30;99.90;;;;;;5059221;28;20048;-69
2023/08/23 09:54:55;;;;;;;33.55;4.45;;;24.40;99.90;;;;;;5060138;28;20033;-69
2023/08/23 09:57:21;;;;;;;3.65;2.72;;;24.40;99.90;;;;;;5055000;28;20040;-68
2023/08/23 09:59:47;;;;;;;7.72;2.42;;;24.50;99.90;;;;;;5060627;28;20036;-68
2023/08/23 10:02:17;;;;;;;3.95;2.67;;;24.60;99.90;;;;;;5057454;28;20032;-68
2023/08/23 10:04:43;;;;;;;3.47;2.30;;;24.60;99.90;;;;;;5070656;28;20029;-67
2023/08/23 10:07:11;;;;;;;4.10;2.05;;;24.70;99.90;;;;;;5067473;28;20044;-68
2023/08/23 10:09:38;;;;;;;3.50;2.75;;;24.70;99.90;;;;;;5068703;28;20044;-68
2023/08/23 10:12:06;;;;;;;2.97;2.10;;;24.70;99.90;;;;;;5071008;28;20524;-68
2023/08/23 10:14:36;;;;;;;5.15;1.95;;;24.70;99.90;;;;;;5070486;28;20391;-68
2023/08/23 10:17:04;;;;;;;2.73;1.87;;;24.70;99.90;;;;;;5056719;28;20052;-68
2023/08/23 10:19:31;;;;;;;3.75;2.35;;;24.80;99.90;;;;;;5059016;28;20032;-68
2023/08/23 10:21:58;;;;;;;2.70;1.55;;;24.90;99.90;;;;;;5065474;28;20056;-69
2023/08/23 10:24:31;;;;;;;4.43;2.03;;;25.00;99.90;;;;;;5063110;28;20036;-68
2023/08/23 10:27:03;;;;;;;3.30;2.05;;;25.10;99.90;;;;;;5064552;28;20047;-68
2023/08/23 10:29:30;;;;;;;3.85;1.88;;;25.10;99.90;;;;;;5067774;28;20044;-68
2023/08/23 10:31:57;;;;;;;4.60;2.20;;;25.20;99.90;;;;;;5064599;28;20033;-67
2023/08/23 10:34:27;;;;;;;2.67;1.77;;;25.20;99.90;;;;;;5055755;28;20039;-68
2023/08/23 10:36:54;;;;;;;4.93;2.07;;;25.20;99.90;;;;;;5062616;28;20044;-68
2023/08/23 10:39:27;;;;;;;3.80;2.42;;;25.30;99.90;;;;;;5069662;28;20418;-68
2023/08/23 10:41:56;;;;;;;3.83;2.30;;;25.30;99.90;;;;;;5067802;28;20037;-68
2023/08/23 10:44:22;;;;;;;4.78;1.83;;;25.30;99.90;;;;;;5068101;28;20032;-68
2023/08/23 10:46:51;;;;;;;2.90;1.83;;;25.40;99.90;;;;;;5063675;28;20717;-68
2023/08/23 10:49:20;;;;;;;5.55;1.90;;;25.40;99.90;;;;;;5057387;28;20044;-68
2023/08/23 10:51:46;;;;;;;2.15;1.42;;;25.50;99.90;;;;;;5061870;28;20391;-68
2023/08/23 10:54:13;;;;;;;3.03;1.90;;;25.60;99.90;;;;;;5064785;28;20390;-68
2023/08/23 10:56:39;;;;;;;3.72;1.67;;;25.60;99.90;;;;;;5067342;28;20099;-69
2023/08/23 10:59:08;;;;;;;2.88;1.83;;;25.60;99.90;;;;;;5056563;28;20528;-68
2023/08/23 11:01:34;;;;;;;4.43;1.90;;;25.60;99.90;;;;;;5067085;28;20741;-69
2023/08/23 11:04:05;;;;;;;4.45;2.10;;;25.70;99.90;;;;;;5069343;28;20044;-68
2023/08/23 11:06:32;;;;;;;4.13;2.20;;;25.80;99.90;;;;;;5067590;28;20064;-70
2023/08/23 11:08:58;;;;;;;5.32;2.05;;;25.80;99.90;;;;;;5065213;28;20472;-68
2023/08/23 11:11:30;;;;;;;3.47;2.00;;;25.80;99.90;;;;;;5067001;28;20116;-69
2023/08/23 11:13:57;;;;;;;4.07;2.30;;;26.00;99.90;;;;;;5061937;28;20453;-69
2023/08/23 11:16:23;;;;;;;5.47;2.50;;;26.00;99.90;;;;;;5067391;28;20406;-68
2023/08/23 11:18:52;;;;;;;4.43;2.35;;;26.00;99.90;;;;;;5074130;28;20085;-69
2023/08/23 11:21:18;;;;;;;5.15;2.47;;;26.00;99.90;;;;;;5064917;28;20091;-68
2023/08/23 11:23:44;;;;;;;6.15;2.75;;;26.00;99.90;;;;;;5074098;28;20491;-69
2023/08/23 11:26:09;;;;;;;5.55;3.20;;;26.10;99.90;;;;;;5063416;28;20104;-69
2023/08/23 11:28:35;;;;;;;5.05;3.05;;;26.20;99.90;;;;;;5074575;28;20047;-68
2023/08/23 11:31:06;;;;;;;5.18;3.38;;;26.20;99.90;;;;;;5070167;28;20052;-69
2023/08/23 11:33:33;;;;;;;5.95;3.00;;;26.30;99.90;;;;;;5064192;28;20669;-69
2023/08/23 11:36:00;;;;;;;5.25;3.35;;;26.50;99.90;;;;;;5080878;28;20044;-68
2023/08/23 11:38:29;;;;;;;4.45;3.10;;;26.50;99.90;;;;;;5061360;28;20103;-68
2023/08/23 11:40:56;;;;;;;6.88;3.15;;;26.40;99.90;;;;;;5069575;28;20037;-68
2023/08/23 11:43:24;;;;;;;7.03;3.85;;;26.40;99.90;;;;;;5066974;28;20037;-69
2023/08/23 11:45:52;;;;;;;5.05;3.10;;;26.40;99.90;;;;;;5064748;28;20037;-69
2023/08/23 11:48:17;;;;;;;5.40;2.40;;;26.50;99.90;;;;;;5065588;28;20072;-68
2023/08/23 11:50:44;;;;;;;6.97;3.67;;;26.60;99.90;;;;;;5064253;28;20061;-68
2023/08/23 11:53:11;;;;;;;4.40;1.90;;;26.70;99.90;;;;;;5059276;28;20033;-68
2023/08/23 11:55:37;;;;;;;6.13;3.15;;;26.90;99.90;;;;;;5051841;28;20064;-68
2023/08/23 11:58:04;;;;;;;3.22;2.20;;;26.90;99.90;;;;;;5059104;28;20068;-69
2023/08/23 12:00:29;;;;;;;3.95;2.28;;;27.00;99.90;;;;;;5071831;28;20036;-68
2023/08/23 12:02:55;;;;;;;4.72;1.85;;;26.90;99.90;;;;;;5068838;28;20390;-68
2023/08/23 12:05:21;;;;;;;5.78;2.20;;;26.90;99.90;;;;;;5068962;28;20063;-68
2023/08/23 12:07:47;;;;;;;4.85;2.00;;;26.90;99.90;;;;;;5065959;28;20029;-68
2023/08/23 12:10:12;;;;;;;2.97;1.80;;;26.90;99.60;;;;;;5062080;28;20414;-69
2023/08/23 12:12:38;;;;;;;4.05;1.70;;;27.00;98.90;;;;;;5064129;28;20032;-69
2023/08/23 12:15:05;;;;;;;7.25;2.20;;;27.00;98.10;;;;;;5067689;28;20037;-68
2023/08/23 12:17:32;;;;;;;7.57;2.20;;;27.00;97.80;;;;;;5073798;28;20036;-68
2023/08/23 12:19:58;;;;;;;3.85;2.10;;;27.00;97.50;;;;;;5069108;28;20032;-69
2023/08/23 12:22:23;;;;;;;2.50;1.55;;;27.10;97.30;;;;;;5065507;28;20056;-68
2023/08/23 12:24:49;;;;;;;2.53;1.50;;;27.10;96.70;;;;;;5069421;28;20041;-69
2023/08/23 12:27:15;;;;;;;3.53;1.40;;;27.20;96.40;;;;;;5065333;28;20131;-69
2023/08/23 12:29:41;;;;;;;2.60;1.70;;;27.20;94.60;;;;;;5062449;28;20554;-68
2023/08/23 12:32:08;;;;;;;2.85;1.58;;;27.10;94.50;;;;;;5062228;28;20044;-69
2023/08/23 12:34:34;;;;;;;2.95;1.38;;;27.00;94.30;;;;;;5068703;28;20028;-70
2023/08/23 12:37:00;;;;;;;4.32;1.67;;;27.00;93.60;;;;;;5062253;28;20048;-70
2023/08/23 12:39:26;;;;;;;4.50;1.90;;;27.00;94.70;;;;;;5059954;28;20508;-69